createdAt,value
2022-11-19T00:01:39.535Z,3.20
2022-11-19T00:04:24.229Z,3.27
2022-11-19T00:07:08.983Z,3.22
2022-11-19T00:09:53.641Z,3.36
2022-11-19T00:12:38.528Z,3.43
2022-11-19T00:15:23.206Z,3.40
2022-11-19T00:18:07.903Z,3.45
2022-11-19T00:20:52.687Z,3.35
2022-11-19T00:23:37.571Z,3.28
2022-11-19T00:26:22.297Z,3.21
2022-11-19T00:29:06.977Z,3.18
2022-11-19T00:31:51.823Z,3.24
2022-11-19T00:34:36.565Z,3.31
2022-11-19T00:37:21.381Z,3.29
2022-11-19T00:40:06.023Z,3.29
2022-11-19T00:42:50.794Z,3.19
2022-11-19T00:45:35.418Z,3.07
2022-11-19T00:48:20.707Z,2.91
2022-11-19T00:51:05.393Z,2.90
2022-11-19T00:53:50.058Z,2.89
2022-11-19T00:56:34.705Z,2.75
2022-11-19T00:59:19.521Z,2.71
2022-11-19T01:02:04.711Z,2.65
2022-11-19T01:04:49.402Z,2.75
2022-11-19T01:07:34.388Z,2.90
2022-11-19T01:10:19.534Z,2.92
2022-11-19T01:13:04.427Z,2.81
2022-11-19T01:15:49.057Z,2.87
2022-11-19T01:18:33.946Z,2.94
2022-11-19T01:21:18.788Z,3.02
2022-11-19T01:24:03.527Z,3.02
2022-11-19T01:26:48.268Z,2.90
2022-11-19T01:29:32.978Z,2.77
2022-11-19T01:32:17.787Z,2.74
2022-11-19T01:35:02.449Z,2.72
2022-11-19T01:37:47.272Z,2.59
2022-11-19T01:40:31.955Z,2.60
2022-11-19T01:43:16.596Z,2.54
2022-11-19T01:46:01.236Z,2.57
2022-11-19T01:48:45.993Z,2.68
2022-11-19T01:51:30.732Z,2.70
2022-11-19T01:54:15.554Z,2.70
2022-11-19T01:57:00.392Z,2.77
2022-11-19T01:59:45.209Z,2.92
2022-11-19T02:02:30.031Z,3.00
2022-11-19T02:05:14.687Z,3.04
2022-11-19T02:07:59.346Z,3.18
2022-11-19T02:10:44.070Z,3.32
2022-11-19T02:13:28.906Z,3.38
2022-11-19T02:16:13.630Z,3.44
2022-11-19T02:18:58.455Z,3.54
2022-11-19T02:21:43.199Z,3.57
2022-11-19T02:24:27.955Z,3.51
2022-11-19T02:27:12.714Z,3.54
2022-11-19T02:29:57.444Z,3.57
2022-11-19T02:32:42.371Z,3.51
2022-11-19T02:35:26.974Z,3.59
2022-11-19T02:38:11.798Z,3.59
2022-11-19T02:40:56.522Z,3.61
2022-11-19T02:43:41.332Z,3.60
2022-11-19T02:46:25.966Z,3.50
2022-11-19T02:49:10.840Z,3.46
2022-11-19T02:51:55.752Z,3.49
2022-11-19T02:54:40.372Z,3.50
2022-11-19T02:57:25.199Z,3.44
2022-11-19T03:00:09.821Z,3.41
2022-11-19T03:02:54.650Z,3.44
2022-11-19T03:05:39.409Z,3.47
2022-11-19T03:08:24.347Z,3.52
2022-11-19T03:11:08.901Z,3.54
2022-11-19T03:13:53.822Z,3.56
2022-11-19T03:16:38.579Z,3.61
2022-11-19T03:19:23.532Z,3.61
2022-11-19T03:22:08.375Z,3.57
2022-11-19T03:24:53.210Z,3.50
2022-11-19T03:27:38.169Z,3.54
2022-11-19T03:30:22.965Z,3.57
2022-11-19T03:33:07.718Z,3.64
2022-11-19T03:35:52.276Z,3.65
2022-11-19T03:38:37.110Z,3.64
2022-11-19T03:41:21.807Z,3.58
2022-11-19T03:44:06.572Z,3.64
2022-11-19T03:46:51.291Z,3.66
2022-11-19T03:49:36.130Z,3.64
2022-11-19T03:52:20.847Z,3.60
2022-11-19T03:55:05.619Z,3.60
2022-11-19T03:57:50.338Z,3.57
2022-11-19T04:00:35.024Z,3.59
2022-11-19T04:03:19.891Z,3.59
2022-11-19T04:06:04.629Z,3.59
2022-11-19T04:08:49.399Z,3.49
2022-11-19T04:11:34.177Z,3.48
2022-11-19T04:14:18.973Z,3.58
2022-11-19T04:17:03.778Z,3.65
2022-11-19T04:19:48.531Z,3.67
2022-11-19T04:22:33.274Z,3.62
2022-11-19T04:25:17.865Z,3.51
2022-11-19T04:28:02.790Z,3.46
2022-11-19T04:30:47.613Z,3.42
2022-11-19T04:33:32.506Z,3.38
2022-11-19T04:36:17.219Z,3.23
2022-11-19T04:39:02.102Z,3.31
2022-11-19T04:41:46.683Z,3.24
2022-11-19T04:44:31.583Z,3.20
2022-11-19T04:47:16.305Z,3.19
2022-11-19T04:50:01.235Z,3.26
2022-11-19T04:52:46.029Z,3.22
2022-11-19T04:55:30.734Z,3.26
2022-11-19T04:58:15.530Z,3.31
2022-11-19T05:01:00.405Z,3.30
2022-11-19T05:03:45.260Z,3.32
2022-11-19T05:06:29.912Z,3.29
2022-11-19T05:09:14.661Z,3.29
2022-11-19T05:11:59.371Z,3.35
2022-11-19T05:14:44.101Z,3.34
2022-11-19T05:17:28.899Z,3.31
2022-11-19T05:20:13.611Z,3.30
2022-11-19T05:22:58.401Z,3.29
2022-11-19T05:25:43.183Z,3.38
2022-11-19T05:28:38.016Z,3.42
2022-11-19T05:31:24.317Z,3.44
2022-11-19T05:34:09.098Z,3.48
2022-11-19T05:36:53.767Z,3.56
2022-11-19T05:39:38.555Z,3.47
2022-11-19T05:42:23.290Z,3.50
2022-11-19T05:45:08.276Z,3.47
2022-11-19T05:47:52.896Z,3.41
2022-11-19T05:50:37.670Z,3.44
2022-11-19T05:53:22.334Z,3.41
2022-11-19T05:56:07.119Z,3.46
2022-11-19T05:58:51.750Z,3.42
2022-11-19T06:01:36.404Z,3.42
2022-11-19T06:04:21.054Z,3.46
2022-11-19T06:07:05.930Z,3.50
2022-11-19T06:09:51.195Z,3.49
2022-11-19T06:12:35.914Z,3.47
2022-11-19T06:15:20.551Z,3.56
2022-11-19T06:18:05.296Z,3.59
2022-11-19T06:20:50.158Z,3.54
2022-11-19T06:23:34.874Z,3.55
2022-11-19T06:26:19.752Z,3.60
2022-11-19T06:29:04.508Z,3.64
2022-11-19T06:31:49.354Z,3.63
2022-11-19T06:34:33.907Z,3.63
2022-11-19T06:37:18.769Z,3.67
2022-11-19T06:40:03.420Z,3.68
2022-11-19T06:42:50.911Z,3.68
2022-11-19T06:45:36.216Z,3.72
2022-11-19T06:48:20.944Z,3.86
2022-11-19T06:51:05.818Z,3.94
2022-11-19T06:53:50.427Z,4.09
2022-11-19T06:56:35.290Z,4.11
2022-11-19T06:59:20.606Z,4.13
2022-11-19T07:02:05.950Z,4.16
2022-11-19T07:04:50.831Z,4.15
2022-11-19T07:07:35.492Z,4.14
2022-11-19T07:10:20.212Z,4.11
2022-11-19T07:13:04.864Z,4.15
2022-11-19T07:15:49.660Z,4.14
2022-11-19T07:18:34.424Z,4.24
2022-11-19T07:21:19.176Z,4.36
2022-11-19T07:24:03.881Z,4.48
2022-11-19T07:26:48.627Z,4.56
2022-11-19T07:29:33.363Z,4.64
2022-11-19T07:32:18.023Z,4.86
2022-11-19T07:35:02.942Z,5.01
2022-11-19T07:37:47.492Z,5.14
2022-11-19T07:40:32.410Z,5.16
2022-11-19T07:43:17.054Z,5.22
2022-11-19T07:46:01.907Z,5.26
2022-11-19T07:48:46.683Z,5.33
2022-11-19T07:51:31.433Z,5.28
2022-11-19T07:54:16.118Z,5.26
2022-11-19T07:57:00.902Z,5.35
2022-11-19T07:59:45.657Z,5.36
2022-11-19T08:02:30.407Z,5.45
2022-11-19T08:05:15.208Z,5.50
2022-11-19T08:07:59.961Z,5.64
2022-11-19T08:10:44.846Z,5.72
2022-11-19T08:13:29.618Z,5.78
2022-11-19T08:16:14.420Z,5.89
2022-11-19T08:18:59.143Z,5.95
2022-11-19T08:21:43.874Z,5.91
2022-11-19T08:24:28.539Z,5.91
2022-11-19T08:27:13.383Z,6.02
2022-11-19T08:29:58.140Z,6.04
2022-11-19T08:32:42.944Z,6.03
2022-11-19T08:35:27.753Z,6.08
2022-11-19T08:38:12.505Z,5.99
2022-11-19T08:40:57.417Z,6.02
2022-11-19T08:43:42.251Z,5.96
2022-11-19T08:46:27.115Z,5.99
2022-11-19T08:49:11.719Z,6.09
2022-11-19T08:51:56.556Z,6.16
2022-11-19T08:54:41.280Z,6.20
2022-11-19T08:57:25.874Z,6.18
2022-11-19T09:00:11.096Z,6.41
2022-11-19T09:02:55.852Z,6.57
2022-11-19T09:05:40.685Z,6.65
2022-11-19T09:08:25.471Z,6.77
2022-11-19T09:11:10.292Z,6.79
2022-11-19T09:13:54.944Z,6.62
2022-11-19T09:16:39.896Z,6.54
2022-11-19T09:19:24.470Z,6.57
2022-11-19T09:22:09.175Z,6.68
2022-11-19T09:24:54.014Z,6.71
2022-11-19T09:27:38.715Z,6.69
2022-11-19T09:30:23.723Z,6.77
2022-11-19T09:33:08.710Z,6.74
2022-11-19T09:35:53.444Z,6.88
2022-11-19T09:38:38.126Z,6.89
2022-11-19T09:41:23.041Z,6.83
2022-11-19T09:44:07.802Z,6.68
2022-11-19T09:46:52.516Z,6.37
2022-11-19T09:49:37.214Z,6.30
2022-11-19T09:52:22.077Z,6.40
2022-11-19T09:55:06.789Z,6.53
2022-11-19T09:57:51.448Z,6.66
2022-11-19T10:00:36.343Z,6.50
2022-11-19T10:03:21.254Z,6.48
2022-11-19T10:06:05.990Z,6.30
2022-11-19T10:08:50.682Z,6.33
2022-11-19T10:11:35.299Z,6.47
2022-11-19T10:14:20.311Z,6.50
2022-11-19T10:17:05.411Z,6.49
2022-11-19T10:19:50.196Z,6.44
2022-11-19T10:22:34.919Z,6.47
2022-11-19T10:25:19.726Z,6.34
2022-11-19T10:28:04.552Z,6.14
2022-11-19T10:30:49.302Z,6.37
2022-11-19T10:33:34.071Z,6.42
2022-11-19T10:36:18.882Z,6.49
2022-11-19T10:39:03.475Z,6.42
2022-11-19T10:41:48.339Z,6.70
2022-11-19T10:44:33.038Z,6.78
2022-11-19T10:47:17.872Z,6.93
2022-11-19T10:50:06.872Z,7.17
2022-11-19T10:52:54.982Z,7.36
2022-11-19T10:55:39.665Z,7.57
2022-11-19T10:58:24.478Z,7.60
2022-11-19T11:01:09.322Z,7.49
2022-11-19T11:03:54.098Z,7.35
2022-11-19T11:06:38.890Z,7.19
2022-11-19T11:09:23.839Z,6.85
2022-11-19T11:12:08.738Z,6.69
2022-11-19T11:14:53.599Z,6.73
2022-11-19T11:17:38.271Z,6.83
2022-11-19T11:20:22.963Z,6.95
2022-11-19T11:23:07.677Z,7.19
2022-11-19T11:25:52.519Z,7.04
2022-11-19T11:28:37.287Z,6.96
2022-11-19T11:31:21.928Z,6.97
2022-11-19T11:34:06.818Z,6.81
2022-11-19T11:36:51.525Z,6.80
2022-11-19T11:39:36.192Z,6.77
2022-11-19T11:42:20.848Z,6.97
2022-11-19T11:45:05.728Z,7.09
2022-11-19T11:47:50.453Z,7.16
2022-11-19T11:50:35.232Z,7.09
2022-11-19T11:53:19.908Z,6.97
2022-11-19T11:56:04.772Z,6.96
2022-11-19T11:58:49.466Z,7.00
2022-11-19T12:01:34.273Z,7.16
2022-11-19T12:04:19.198Z,7.20
2022-11-19T12:07:04.036Z,7.31
2022-11-19T12:09:48.736Z,7.50
2022-11-19T12:12:33.330Z,7.51
2022-11-19T12:15:18.152Z,7.43
2022-11-19T12:18:02.967Z,7.21
2022-11-19T12:20:47.812Z,7.05
2022-11-19T12:23:32.448Z,7.10
2022-11-19T12:26:17.272Z,7.02
2022-11-19T12:29:02.098Z,6.92
2022-11-19T12:31:46.872Z,6.92
2022-11-19T12:34:31.661Z,6.85
2022-11-19T12:37:16.439Z,6.80
2022-11-19T12:40:01.341Z,6.88
2022-11-19T12:42:45.943Z,6.83
2022-11-19T12:45:30.662Z,6.81
2022-11-19T12:48:15.501Z,6.81
2022-11-19T12:51:00.268Z,6.72
2022-11-19T12:53:44.875Z,6.61
2022-11-19T12:56:29.621Z,6.52
2022-11-19T12:59:14.424Z,6.44
2022-11-19T13:01:59.068Z,6.28
2022-11-19T13:04:43.959Z,6.22
2022-11-19T13:07:28.774Z,6.24
2022-11-19T13:10:13.405Z,6.34
2022-11-19T13:12:58.035Z,6.38
2022-11-19T13:15:42.895Z,6.43
2022-11-19T13:18:27.552Z,6.54
2022-11-19T13:21:12.421Z,6.68
2022-11-19T13:23:57.105Z,6.80
2022-11-19T13:26:41.987Z,6.94
2022-11-19T13:29:26.739Z,7.02
2022-11-19T13:32:11.483Z,7.05
2022-11-19T13:34:56.199Z,7.03
2022-11-19T13:37:40.795Z,6.85
2022-11-19T13:40:25.704Z,6.84
2022-11-19T13:43:30.940Z,6.97
2022-11-19T13:46:15.377Z,7.12
2022-11-19T13:49:00.211Z,7.19
2022-11-19T13:51:44.818Z,7.31
2022-11-19T13:54:29.508Z,7.44
2022-11-19T13:57:14.277Z,7.47
2022-11-19T13:59:59.111Z,7.42
2022-11-19T14:02:43.914Z,7.41
2022-11-19T14:05:28.735Z,7.27
2022-11-19T14:08:13.388Z,7.15
2022-11-19T14:10:58.230Z,7.03
2022-11-19T14:13:43.076Z,6.96
2022-11-19T14:16:27.832Z,6.84
2022-11-19T14:19:12.641Z,6.84
2022-11-19T14:21:57.448Z,6.79
2022-11-19T14:24:42.165Z,6.69
2022-11-19T14:27:26.976Z,6.62
2022-11-19T14:30:11.823Z,6.61
2022-11-19T14:32:56.672Z,6.51
2022-11-19T14:35:41.438Z,6.44
2022-11-19T14:38:26.253Z,6.42
2022-11-19T14:41:11.130Z,6.44
2022-11-19T14:43:55.878Z,6.44
2022-11-19T14:46:40.534Z,6.49
2022-11-19T14:49:25.461Z,6.50
2022-11-19T14:52:10.551Z,6.39
2022-11-19T14:54:55.369Z,6.27
2022-11-19T14:57:40.134Z,6.18
2022-11-19T15:00:25.002Z,6.13
2022-11-19T15:03:09.640Z,6.00
2022-11-19T15:05:54.535Z,5.98
2022-11-19T15:08:39.208Z,5.96
2022-11-19T15:11:24.118Z,6.01
2022-11-19T15:14:08.915Z,6.00
2022-11-19T15:16:53.692Z,5.97
2022-11-19T15:19:38.453Z,5.93
2022-11-19T15:22:23.194Z,5.80
2022-11-19T15:25:11.072Z,5.75
2022-11-19T15:27:58.862Z,5.77
2022-11-19T15:30:43.614Z,5.69
2022-11-19T15:33:28.466Z,5.69
2022-11-19T15:36:13.288Z,5.65
2022-11-19T15:38:57.956Z,5.68
2022-11-19T15:41:42.574Z,5.67
2022-11-19T15:44:27.372Z,5.60
2022-11-19T15:47:12.133Z,5.53
2022-11-19T15:49:56.887Z,5.55
2022-11-19T15:52:41.787Z,5.54
2022-11-19T15:55:26.420Z,5.47
2022-11-19T15:58:11.297Z,5.37
2022-11-19T16:00:55.934Z,5.34
2022-11-19T16:03:40.680Z,5.28
2022-11-19T16:06:25.381Z,5.26
2022-11-19T16:09:10.403Z,5.23
2022-11-19T16:11:55.116Z,5.22
2022-11-19T16:14:39.981Z,5.23
2022-11-19T16:17:25.079Z,5.28
2022-11-19T16:20:09.983Z,5.33
2022-11-19T16:22:54.740Z,5.39
2022-11-19T16:25:39.502Z,5.38
2022-11-19T16:28:24.344Z,5.42
2022-11-19T16:31:09.094Z,5.38
2022-11-19T16:33:53.861Z,5.34
2022-11-19T16:36:39.019Z,5.44
2022-11-19T16:39:23.867Z,5.50
2022-11-19T16:42:12.583Z,5.48
2022-11-19T16:45:00.495Z,5.54
2022-11-19T16:47:45.254Z,5.50
2022-11-19T16:50:30.074Z,5.43
2022-11-19T16:53:14.732Z,5.35
2022-11-19T16:55:59.485Z,5.27
2022-11-19T16:58:44.348Z,5.28
2022-11-19T17:01:29.857Z,5.13
2022-11-19T17:04:14.944Z,4.98
2022-11-19T17:06:59.950Z,4.78
2022-11-19T17:09:45.051Z,4.68
2022-11-19T17:12:29.930Z,4.61
2022-11-19T17:15:14.731Z,4.59
2022-11-19T17:17:59.391Z,4.52
2022-11-19T17:20:44.206Z,4.53
2022-11-19T17:23:28.921Z,4.49
2022-11-19T17:26:13.801Z,4.45
2022-11-19T17:28:58.521Z,4.49
2022-11-19T17:31:43.196Z,4.52
2022-11-19T17:34:27.821Z,4.57
2022-11-19T17:37:12.838Z,4.65
2022-11-19T17:39:57.538Z,4.60
2022-11-19T17:42:42.340Z,4.59
2022-11-19T17:45:27.066Z,4.48
2022-11-19T17:48:11.775Z,4.43
2022-11-19T17:50:56.726Z,4.54
2022-11-19T17:53:41.505Z,4.68
2022-11-19T17:56:26.286Z,4.71
2022-11-19T17:59:10.960Z,4.70
2022-11-19T18:01:57.120Z,4.68
2022-11-19T18:04:42.277Z,4.85
2022-11-19T18:07:27.037Z,4.97
2022-11-19T18:10:11.811Z,5.00
2022-11-19T18:12:56.606Z,5.02
2022-11-19T18:15:41.427Z,5.02
2022-11-19T18:18:26.310Z,4.98
2022-11-19T18:21:11.048Z,4.96
2022-11-19T18:23:55.851Z,4.90
2022-11-19T18:26:40.777Z,4.84
2022-11-19T18:29:25.366Z,4.82
2022-11-19T18:32:10.218Z,4.73
2022-11-19T18:34:57.998Z,4.69
2022-11-19T18:37:45.758Z,4.70
2022-11-19T18:40:30.558Z,4.67
2022-11-19T18:43:15.252Z,4.64
2022-11-19T18:45:59.937Z,4.67
2022-11-19T18:48:44.843Z,4.71
2022-11-19T18:51:29.546Z,4.70
2022-11-19T18:54:14.288Z,4.64
2022-11-19T18:56:59.039Z,4.63
2022-11-19T18:59:43.865Z,4.57
2022-11-19T19:02:28.542Z,4.58
2022-11-19T19:05:13.405Z,4.58
2022-11-19T19:07:57.943Z,4.50
2022-11-19T19:10:42.664Z,4.53
2022-11-19T19:13:27.474Z,4.52
2022-11-19T19:16:12.395Z,4.50
2022-11-19T19:18:57.150Z,4.49
2022-11-19T19:21:41.894Z,4.53
2022-11-19T19:24:26.741Z,4.55
2022-11-19T19:27:12.088Z,4.65
2022-11-19T19:29:56.905Z,4.75
2022-11-19T19:32:41.761Z,4.74
2022-11-19T19:35:26.688Z,4.70
2022-11-19T19:38:11.896Z,4.74
2022-11-19T19:40:56.643Z,4.77
2022-11-19T19:43:41.413Z,4.88
2022-11-19T19:46:26.138Z,4.92
2022-11-19T19:49:11.027Z,4.89
2022-11-19T19:51:55.889Z,4.82
2022-11-19T19:54:40.578Z,4.78
2022-11-19T19:57:25.350Z,4.71
2022-11-19T20:00:10.755Z,4.62
2022-11-19T20:02:55.541Z,4.66
2022-11-19T20:05:40.438Z,4.66
2022-11-19T20:08:25.318Z,4.53
2022-11-19T20:11:09.947Z,4.53
2022-11-19T20:13:54.757Z,4.49
2022-11-19T20:16:39.421Z,4.56
2022-11-19T20:19:24.454Z,4.61
2022-11-19T20:22:09.318Z,4.54
2022-11-19T20:24:54.051Z,4.56
2022-11-19T20:27:38.643Z,4.50
2022-11-19T20:30:23.600Z,4.58
2022-11-19T20:33:08.414Z,4.72
2022-11-19T20:35:53.199Z,4.79
2022-11-19T20:38:38.057Z,4.78
2022-11-19T20:41:22.861Z,4.75
2022-11-19T20:44:07.787Z,4.73
2022-11-19T20:46:52.395Z,4.66
2022-11-19T20:49:37.137Z,4.58
2022-11-19T20:52:21.731Z,4.57
2022-11-19T20:55:07.111Z,4.59
2022-11-19T20:57:51.707Z,4.59
2022-11-19T21:00:36.586Z,4.45
2022-11-19T21:03:21.296Z,4.42
2022-11-19T21:06:06.032Z,4.23
2022-11-19T21:08:50.862Z,4.23
2022-11-19T21:11:35.605Z,4.25
2022-11-19T21:14:20.595Z,4.26
2022-11-19T21:17:05.270Z,4.29
2022-11-19T21:19:50.168Z,4.38
2022-11-19T21:22:35.061Z,4.40
2022-11-19T21:25:19.982Z,4.42
2022-11-19T21:28:04.768Z,4.40
2022-11-19T21:30:49.516Z,4.50
2022-11-19T21:33:34.224Z,4.57
2022-11-19T21:36:18.929Z,4.58
2022-11-19T21:39:03.604Z,4.59
2022-11-19T21:41:48.319Z,4.58
2022-11-19T21:44:33.129Z,4.62
2022-11-19T21:47:17.864Z,4.66
2022-11-19T21:50:02.729Z,4.66
2022-11-19T21:52:47.442Z,4.66
2022-11-19T21:55:32.147Z,4.72
2022-11-19T21:58:16.865Z,4.74
2022-11-19T22:01:01.620Z,4.68
2022-11-19T22:03:46.395Z,4.72
2022-11-19T22:06:31.054Z,4.64
2022-11-19T22:09:15.841Z,4.60
2022-11-19T22:12:00.668Z,4.61
2022-11-19T22:14:45.527Z,4.58
2022-11-19T22:17:32.946Z,4.61
2022-11-19T22:20:18.161Z,4.58
2022-11-19T22:23:02.952Z,4.58
2022-11-19T22:25:47.747Z,4.55
2022-11-19T22:28:32.750Z,4.58
2022-11-19T22:31:17.364Z,4.58
2022-11-19T22:34:02.100Z,4.57
2022-11-19T22:36:46.751Z,4.59
2022-11-19T22:39:31.527Z,4.55
2022-11-19T22:42:16.300Z,4.54
2022-11-19T22:45:01.101Z,4.55
2022-11-19T22:47:45.814Z,4.52
2022-11-19T22:50:30.652Z,4.47
2022-11-19T22:53:15.381Z,4.42
2022-11-19T22:56:00.164Z,4.43
2022-11-19T22:58:44.958Z,4.43
2022-11-19T23:01:29.722Z,4.39
2022-11-19T23:04:14.501Z,4.32
2022-11-19T23:06:59.225Z,4.30
2022-11-19T23:09:44.035Z,4.30
2022-11-19T23:12:28.755Z,4.25
2022-11-19T23:15:14.179Z,4.21
2022-11-19T23:17:58.977Z,4.16
2022-11-19T23:20:43.618Z,4.06
2022-11-19T23:23:28.432Z,4.06
2022-11-19T23:26:13.027Z,4.12
2022-11-19T23:28:57.925Z,4.15
2022-11-19T23:31:42.695Z,4.15
2022-11-19T23:34:27.556Z,4.13
2022-11-19T23:37:12.299Z,4.13
2022-11-19T23:39:57.169Z,4.07
2022-11-19T23:42:41.908Z,4.10
2022-11-19T23:45:26.574Z,4.14
2022-11-19T23:48:11.240Z,4.18
2022-11-19T23:50:56.133Z,4.21
2022-11-19T23:53:40.825Z,4.20
2022-11-19T23:56:25.585Z,4.20
2022-11-19T23:59:10.312Z,4.14
